createdAt,value
2018-03-23T00:01:40.492Z,6.00
2018-03-23T00:04:14.353Z,5.90
2018-03-23T00:06:41.762Z,6.00
2018-03-23T00:09:14.165Z,6.00
2018-03-23T00:11:40.417Z,6.00
2018-03-23T00:14:09.716Z,6.00
2018-03-23T00:16:39.468Z,5.90
2018-03-23T00:19:05.708Z,6.00
2018-03-23T00:24:14.702Z,6.00
2018-03-23T00:26:41.644Z,5.90
2018-03-23T00:29:14.198Z,5.90
2018-03-23T00:31:44.509Z,5.90
2018-03-23T00:34:14.807Z,5.90
2018-03-23T00:36:41.152Z,6.00
2018-03-23T00:39:08.064Z,5.90
2018-03-23T00:41:46.448Z,5.90
2018-03-23T00:44:15.860Z,5.90
2018-03-23T00:46:42.759Z,5.90
2018-03-23T00:49:08.963Z,5.90
2018-03-23T00:51:38.166Z,5.90
2018-03-23T00:54:04.500Z,5.90
2018-03-23T00:56:30.766Z,5.90
2018-03-23T00:59:01.271Z,5.90
2018-03-23T01:01:27.512Z,5.90
2018-03-23T01:04:00.716Z,6.00
2018-03-23T01:06:26.945Z,6.00
2018-03-23T01:08:53.066Z,6.00
2018-03-23T01:11:19.298Z,6.00
2018-03-23T01:13:45.477Z,6.00
2018-03-23T01:16:11.618Z,5.90
2018-03-23T01:18:37.756Z,5.90
2018-03-23T01:21:03.892Z,6.00
2018-03-23T01:23:29.993Z,6.00
2018-03-23T01:25:56.148Z,5.90
2018-03-23T01:28:22.311Z,5.90
2018-03-23T01:31:00.501Z,5.90
2018-03-23T01:33:26.740Z,5.90
2018-03-23T01:35:52.869Z,5.90
2018-03-23T01:38:18.992Z,5.90
2018-03-23T01:40:45.157Z,5.90
2018-03-23T01:43:11.292Z,5.90
2018-03-23T01:45:44.890Z,5.90
2018-03-23T01:48:14.247Z,6.00
2018-03-23T01:50:46.601Z,5.90
2018-03-23T01:53:24.960Z,5.90
2018-03-23T01:55:51.117Z,5.90
2018-03-23T01:58:17.312Z,5.90
2018-03-23T02:00:43.473Z,5.90
2018-03-23T02:03:09.588Z,5.90
2018-03-23T02:05:45.228Z,5.90
2018-03-23T02:08:12.134Z,6.00
2018-03-23T02:10:38.262Z,6.00
2018-03-23T02:13:04.411Z,6.00
2018-03-23T02:15:30.551Z,6.00
2018-03-23T02:17:56.668Z,6.00
2018-03-23T02:20:22.788Z,6.00
2018-03-23T02:22:48.908Z,6.00
2018-03-23T02:25:15.077Z,6.00
2018-03-23T02:27:41.225Z,6.00
2018-03-23T02:30:07.434Z,6.00
2018-03-23T02:32:33.528Z,6.00
2018-03-23T02:34:59.659Z,6.00
2018-03-23T02:37:25.807Z,6.00
2018-03-23T02:39:51.986Z,6.00
2018-03-23T02:42:18.881Z,6.10
2018-03-23T02:44:44.990Z,6.00
2018-03-23T02:47:11.905Z,6.10
2018-03-23T02:49:38.033Z,6.10
2018-03-23T02:52:04.199Z,6.10
2018-03-23T02:54:30.387Z,6.00
2018-03-23T02:56:56.526Z,6.10
2018-03-23T02:59:22.704Z,6.10
2018-03-23T03:01:48.811Z,6.00
2018-03-23T03:04:15.088Z,6.00
2018-03-23T03:06:41.208Z,6.10
2018-03-23T03:09:07.560Z,6.10
2018-03-23T03:11:33.677Z,6.00
2018-03-23T03:13:59.789Z,6.10
2018-03-23T03:16:25.962Z,6.10
2018-03-23T03:18:52.827Z,6.10
2018-03-23T03:21:18.936Z,6.10
2018-03-23T03:23:45.059Z,6.10
2018-03-23T03:26:11.930Z,6.10
2018-03-23T03:28:38.037Z,6.00
2018-03-23T03:31:04.161Z,6.10
2018-03-23T03:33:30.254Z,6.10
2018-03-23T03:35:56.435Z,6.10
2018-03-23T03:38:22.646Z,6.00
2018-03-23T03:40:48.838Z,6.00
2018-03-23T03:43:14.938Z,6.10
2018-03-23T03:45:44.418Z,6.00
2018-03-23T03:48:10.560Z,6.00
2018-03-23T03:50:41.504Z,6.00
2018-03-23T03:53:11.682Z,6.00
2018-03-23T03:55:40.123Z,6.10
2018-03-23T03:58:06.978Z,6.10
2018-03-23T04:00:33.841Z,6.10
2018-03-23T04:03:00.710Z,6.10
2018-03-23T04:05:26.879Z,6.10
2018-03-23T04:07:53.376Z,6.10
2018-03-23T04:10:20.242Z,6.00
2018-03-23T04:12:47.098Z,6.10
2018-03-23T04:15:13.258Z,6.10
2018-03-23T04:17:39.333Z,6.10
2018-03-23T04:20:05.463Z,6.00
2018-03-23T04:22:31.593Z,6.00
2018-03-23T04:24:57.725Z,6.00
2018-03-23T04:27:23.876Z,5.90
2018-03-23T04:29:50.038Z,5.90
2018-03-23T04:32:16.187Z,5.80
2018-03-23T04:34:42.303Z,5.80
2018-03-23T04:37:09.235Z,5.80
2018-03-23T04:39:35.365Z,5.70
2018-03-23T04:42:01.538Z,5.70
2018-03-23T04:44:27.721Z,5.80
2018-03-23T04:46:54.585Z,5.70
2018-03-23T04:49:20.711Z,5.70
2018-03-23T04:51:47.570Z,5.70
2018-03-23T04:54:13.716Z,5.70
2018-03-23T04:56:39.950Z,5.60
2018-03-23T04:59:06.792Z,5.50
2018-03-23T05:01:32.959Z,5.50
2018-03-23T05:03:59.111Z,5.50
2018-03-23T05:06:25.254Z,5.50
2018-03-23T05:08:51.784Z,5.50
2018-03-23T05:11:17.948Z,5.50
2018-03-23T05:13:44.065Z,5.40
2018-03-23T05:16:10.244Z,5.50
2018-03-23T05:18:36.390Z,5.50
2018-03-23T05:21:02.604Z,5.40
2018-03-23T05:23:28.742Z,5.50
2018-03-23T05:25:54.843Z,5.40
2018-03-23T05:28:20.959Z,5.40
2018-03-23T05:30:47.118Z,5.40
2018-03-23T05:33:13.982Z,5.40
2018-03-23T05:35:40.878Z,5.30
2018-03-23T05:40:42.355Z,5.40
2018-03-23T05:43:08.510Z,5.40
2018-03-23T05:45:34.929Z,5.30
2018-03-23T05:50:42.861Z,5.30
2018-03-23T05:53:09.156Z,5.30
2018-03-23T05:55:45.434Z,5.30
2018-03-23T05:58:14.755Z,5.30
2018-03-23T06:00:44.695Z,5.30
2018-03-23T06:03:14.843Z,5.30
2018-03-23T06:05:41.689Z,5.30
2018-03-23T06:08:13.122Z,5.30
2018-03-23T06:10:39.961Z,5.30
2018-03-23T06:13:06.248Z,5.40
2018-03-23T06:15:32.388Z,5.40
2018-03-23T06:17:58.955Z,5.40
2018-03-23T06:20:26.373Z,5.30
2018-03-23T06:22:52.585Z,5.30
2018-03-23T06:25:19.139Z,5.40
2018-03-23T06:27:45.338Z,5.40
2018-03-23T06:30:11.767Z,5.30
2018-03-23T06:32:37.927Z,5.40
2018-03-23T06:35:04.240Z,5.30
2018-03-23T06:37:30.642Z,5.40
2018-03-23T06:39:57.484Z,5.40
2018-03-23T06:42:23.663Z,5.40
2018-03-23T06:48:15.389Z,5.40
2018-03-23T06:50:41.689Z,5.40
2018-03-23T06:53:08.225Z,5.50
2018-03-23T06:55:44.347Z,5.50
2018-03-23T06:58:11.739Z,5.50
2018-03-23T07:00:40.478Z,5.50
2018-03-23T07:03:06.846Z,5.50
2018-03-23T07:05:33.981Z,5.50
2018-03-23T07:08:00.354Z,5.40
2018-03-23T07:10:26.676Z,5.50
2018-03-23T07:12:53.057Z,5.50
2018-03-23T07:15:19.358Z,5.60
2018-03-23T07:17:45.689Z,5.60
2018-03-23T07:20:12.862Z,5.60
2018-03-23T07:22:39.382Z,5.60
2018-03-23T07:25:05.690Z,5.60
2018-03-23T07:27:32.834Z,5.70
2018-03-23T07:30:05.108Z,5.70
2018-03-23T07:32:31.475Z,5.70
2018-03-23T07:35:14.711Z,5.60
2018-03-23T07:37:40.936Z,5.60
2018-03-23T07:40:09.245Z,5.60
2018-03-23T07:42:35.571Z,5.50
2018-03-23T07:45:01.906Z,5.60
2018-03-23T07:47:28.209Z,5.70
2018-03-23T07:49:54.719Z,5.70
2018-03-23T07:52:20.946Z,5.70
2018-03-23T07:54:47.345Z,5.80
2018-03-23T07:57:13.654Z,5.90
2018-03-23T07:59:40.733Z,6.10
2018-03-23T08:02:07.059Z,6.20
2018-03-23T08:04:33.336Z,6.30
2018-03-23T08:06:59.673Z,6.40
2018-03-23T08:09:26.667Z,6.60
2018-03-23T08:11:52.958Z,6.60
2018-03-23T08:14:20.020Z,6.80
2018-03-23T08:16:46.429Z,6.80
2018-03-23T08:19:16.550Z,6.90
2018-03-23T08:21:42.909Z,7.00
2018-03-23T08:24:09.243Z,7.10
2018-03-23T08:26:35.646Z,7.20
2018-03-23T08:29:01.938Z,7.30
2018-03-23T08:31:28.307Z,7.40
2018-03-23T08:33:55.381Z,7.70
2018-03-23T08:36:21.667Z,7.70
2018-03-23T08:38:47.918Z,7.70
2018-03-23T08:41:14.173Z,7.70
2018-03-23T08:43:40.404Z,7.70
2018-03-23T08:46:06.675Z,7.60
2018-03-23T08:48:33.673Z,7.30
2018-03-23T08:50:59.991Z,7.30
2018-03-23T08:53:27.073Z,7.30
2018-03-23T08:55:53.302Z,7.30
2018-03-23T08:58:20.012Z,7.30
2018-03-23T09:00:46.296Z,7.40
2018-03-23T09:03:12.646Z,7.30
2018-03-23T09:05:38.938Z,7.40
2018-03-23T09:08:05.144Z,7.50
2018-03-23T09:10:31.542Z,7.50
2018-03-23T09:12:57.823Z,7.40
2018-03-23T09:15:24.121Z,7.50
2018-03-23T09:17:50.325Z,7.50
2018-03-23T09:20:16.584Z,7.50
2018-03-23T09:22:42.894Z,7.40
2018-03-23T09:25:09.114Z,7.40
2018-03-23T09:27:36.251Z,7.50
2018-03-23T09:30:03.211Z,7.50
2018-03-23T09:32:29.525Z,7.50
2018-03-23T09:34:55.902Z,7.40
2018-03-23T09:37:22.168Z,7.30
2018-03-23T09:39:49.200Z,7.70
2018-03-23T09:42:15.636Z,7.60
2018-03-23T09:44:42.751Z,8.30
2018-03-23T09:47:09.278Z,8.30
2018-03-23T09:49:35.613Z,8.60
2018-03-23T09:52:09.515Z,9.00
2018-03-23T09:54:36.632Z,9.00
2018-03-23T09:57:14.201Z,9.00
2018-03-23T09:59:40.485Z,8.90
2018-03-23T10:02:06.919Z,8.90
2018-03-23T10:04:33.203Z,8.90
2018-03-23T10:07:08.902Z,8.60
2018-03-23T10:09:35.303Z,8.90
2018-03-23T10:12:02.422Z,9.30
2018-03-23T10:14:29.505Z,9.30
2018-03-23T10:16:55.793Z,9.30
2018-03-23T10:19:22.914Z,9.20
2018-03-23T10:21:49.240Z,9.20
2018-03-23T10:24:15.750Z,9.20
2018-03-23T10:26:48.828Z,9.40
2018-03-23T10:29:14.982Z,9.30
2018-03-23T10:31:41.146Z,9.20
2018-03-23T10:34:07.237Z,9.20
2018-03-23T10:36:33.366Z,9.30
2018-03-23T10:39:00.279Z,9.20
2018-03-23T10:41:27.336Z,9.10
2018-03-23T10:43:53.520Z,9.10
2018-03-23T10:46:19.624Z,9.10
2018-03-23T10:48:58.653Z,9.10
2018-03-23T10:51:26.695Z,8.80
2018-03-23T10:53:52.913Z,8.80
2018-03-23T10:56:20.206Z,9.10
2018-03-23T11:17:03.465Z,9.30
2018-03-23T11:19:29.628Z,9.30
2018-03-23T11:21:56.558Z,9.00
2018-03-23T11:24:23.249Z,9.00
2018-03-23T11:29:27.561Z,9.00
2018-03-23T11:31:53.676Z,8.90
2018-03-23T11:37:04.893Z,8.90
2018-03-23T11:39:31.016Z,8.90
2018-03-23T11:41:58.398Z,8.80
2018-03-23T11:44:25.377Z,8.70
2018-03-23T11:46:51.547Z,8.70
2018-03-23T11:49:17.650Z,8.70
2018-03-23T11:51:43.922Z,8.70
2018-03-23T11:54:10.050Z,8.60
2018-03-23T11:56:36.158Z,8.70
2018-03-23T11:59:10.632Z,8.70
2018-03-23T12:01:39.449Z,8.80
2018-03-23T12:04:05.680Z,8.90
2018-03-23T12:06:32.773Z,9.10
2018-03-23T12:08:58.947Z,9.00
2018-03-23T12:11:25.138Z,9.00
2018-03-23T12:13:51.675Z,8.90
2018-03-23T12:16:17.808Z,8.90
2018-03-23T12:18:44.036Z,8.90
2018-03-23T12:21:10.188Z,9.00
2018-03-23T12:23:43.541Z,9.00
2018-03-23T12:26:10.749Z,9.10
2018-03-23T12:28:52.658Z,9.20
2018-03-23T12:31:18.791Z,9.10
2018-03-23T12:33:45.050Z,9.00
2018-03-23T12:36:11.553Z,8.90
2018-03-23T12:38:37.759Z,8.70
2018-03-23T12:41:15.897Z,8.60
2018-03-23T12:43:42.775Z,8.70
2018-03-23T12:46:13.116Z,8.70
2018-03-23T12:48:39.257Z,8.70
2018-03-23T12:51:05.410Z,8.60
2018-03-23T12:53:31.587Z,8.60
2018-03-23T12:55:57.767Z,8.50
2018-03-23T12:58:23.923Z,8.50
2018-03-23T13:00:50.078Z,8.40
2018-03-23T13:03:16.297Z,8.50
2018-03-23T13:05:42.879Z,8.50
2018-03-23T13:08:09.048Z,8.40
2018-03-23T13:10:35.545Z,8.40
2018-03-23T13:13:01.751Z,8.40
2018-03-23T13:15:28.324Z,8.50
2018-03-23T13:17:54.468Z,8.40
2018-03-23T13:20:20.632Z,8.40
2018-03-23T13:22:46.866Z,8.40
2018-03-23T13:25:13.003Z,8.40
2018-03-23T13:27:39.323Z,8.30
2018-03-23T13:30:05.488Z,8.30
2018-03-23T13:32:31.654Z,8.30
2018-03-23T13:35:07.919Z,8.30
2018-03-23T13:37:34.220Z,8.20
2018-03-23T13:40:00.336Z,8.10
2018-03-23T13:42:27.312Z,8.20
2018-03-23T13:44:53.538Z,8.20
2018-03-23T13:47:19.700Z,8.20
2018-03-23T13:49:46.609Z,8.40
2018-03-23T13:52:12.722Z,8.30
2018-03-23T13:54:41.388Z,8.40
2018-03-23T13:57:07.718Z,8.40
2018-03-23T13:59:40.618Z,8.40
2018-03-23T14:02:07.321Z,8.40
2018-03-23T14:04:33.539Z,8.40
2018-03-23T14:07:00.024Z,8.50
2018-03-23T14:09:26.257Z,8.40
2018-03-23T14:11:53.929Z,8.40
2018-03-23T14:14:20.181Z,8.40
2018-03-23T14:16:46.367Z,8.40
2018-03-23T14:19:12.812Z,8.50
2018-03-23T14:21:40.794Z,8.50
2018-03-23T14:24:07.021Z,8.50
2018-03-23T14:26:33.164Z,8.40
2018-03-23T14:28:59.421Z,8.40
2018-03-23T14:31:25.564Z,8.40
2018-03-23T14:33:51.702Z,8.30
2018-03-23T14:36:18.611Z,8.10
2018-03-23T14:38:44.775Z,8.10
2018-03-23T14:41:11.647Z,8.10
2018-03-23T14:43:37.846Z,8.10
2018-03-23T14:46:04.022Z,8.10
2018-03-23T14:48:30.198Z,8.10
2018-03-23T14:50:56.396Z,8.10
2018-03-23T14:53:22.562Z,8.00
2018-03-23T14:55:48.739Z,8.10
2018-03-23T14:58:14.931Z,8.10
2018-03-23T15:00:41.105Z,8.10
2018-03-23T15:03:07.272Z,8.00
2018-03-23T15:05:33.409Z,8.00
2018-03-23T15:07:59.576Z,8.00
2018-03-23T15:10:26.734Z,8.10
2018-03-23T15:12:53.063Z,8.10
2018-03-23T15:15:19.194Z,8.20
2018-03-23T15:17:45.321Z,8.10
2018-03-23T15:20:11.519Z,8.10
2018-03-23T15:22:37.716Z,8.10
2018-03-23T15:25:03.926Z,8.10
2018-03-23T15:27:30.052Z,8.00
2018-03-23T15:29:56.251Z,8.00
2018-03-23T15:32:22.528Z,8.10
2018-03-23T15:34:48.687Z,8.10
2018-03-23T15:37:14.895Z,7.90
2018-03-23T15:39:41.047Z,7.90
2018-03-23T15:42:07.319Z,7.80
2018-03-23T15:44:33.544Z,7.80
2018-03-23T15:47:00.631Z,7.80
2018-03-23T15:49:26.826Z,7.70
2018-03-23T15:51:58.182Z,7.70
2018-03-23T15:54:25.160Z,7.70
2018-03-23T15:56:51.457Z,7.70
2018-03-23T15:59:17.587Z,7.60
2018-03-23T16:01:43.848Z,7.70
2018-03-23T16:04:10.730Z,7.50
2018-03-23T16:06:36.829Z,7.50
2018-03-23T16:09:03.010Z,7.50
2018-03-23T16:11:29.160Z,7.50
2018-03-23T16:13:55.305Z,7.50
2018-03-23T16:16:21.453Z,7.50
2018-03-23T16:18:47.691Z,7.40
2018-03-23T16:21:13.987Z,7.30
2018-03-23T16:23:41.011Z,7.30
2018-03-23T16:26:08.013Z,7.40
2018-03-23T16:28:34.166Z,7.40
2018-03-23T16:31:00.328Z,7.30
2018-03-23T16:33:26.516Z,7.30
2018-03-23T16:35:53.396Z,7.20
2018-03-23T16:38:19.567Z,7.20
2018-03-23T16:40:45.777Z,7.20
2018-03-23T16:43:11.978Z,7.20
2018-03-23T16:45:38.263Z,7.10
2018-03-23T16:48:04.826Z,7.10
2018-03-23T16:50:31.235Z,7.10
2018-03-23T16:52:58.720Z,7.10
2018-03-23T16:55:24.915Z,7.10
2018-03-23T16:57:51.431Z,7.10
2018-03-23T17:00:17.572Z,7.00
2018-03-23T17:02:43.777Z,7.00
2018-03-23T17:05:10.750Z,7.00
2018-03-23T17:07:37.131Z,7.00
2018-03-23T17:10:03.665Z,7.00
2018-03-23T17:12:29.913Z,6.90
2018-03-23T17:14:56.048Z,6.80
2018-03-23T17:20:10.476Z,6.80
2018-03-23T17:22:37.258Z,6.80
2018-03-23T17:25:03.705Z,6.80
2018-03-23T17:27:30.028Z,6.70
2018-03-23T17:29:57.703Z,6.70
2018-03-23T17:32:24.062Z,6.70
2018-03-23T17:34:50.987Z,6.70
2018-03-23T17:37:17.146Z,6.70
2018-03-23T17:39:43.260Z,6.60
2018-03-23T17:42:09.441Z,6.50
2018-03-23T17:44:36.438Z,6.50
2018-03-23T17:47:02.591Z,6.50
2018-03-23T17:49:28.711Z,6.60
2018-03-23T17:54:48.802Z,6.60
2018-03-23T17:57:15.707Z,6.60
2018-03-23T17:59:42.656Z,6.50
2018-03-23T18:02:08.791Z,6.50
2018-03-23T18:04:35.010Z,6.40
2018-03-23T18:07:01.233Z,6.40
2018-03-23T18:09:27.395Z,6.50
2018-03-23T18:11:54.371Z,6.50
2018-03-23T18:14:27.266Z,6.50
2018-03-23T18:16:53.496Z,6.50
2018-03-23T18:19:19.640Z,6.40
2018-03-23T18:21:45.870Z,6.40
2018-03-23T18:24:12.039Z,6.40
2018-03-23T18:26:38.261Z,6.40
2018-03-23T18:29:04.449Z,6.40
2018-03-23T18:31:30.659Z,6.40
2018-03-23T18:33:56.995Z,6.40
2018-03-23T18:36:23.160Z,6.40
2018-03-23T18:38:49.339Z,6.40
2018-03-23T18:41:15.486Z,6.30
2018-03-23T18:43:43.317Z,6.30
2018-03-23T18:49:17.352Z,6.20
2018-03-23T18:51:43.748Z,6.20
2018-03-23T18:54:11.002Z,6.20
2018-03-23T18:56:38.530Z,6.30
2018-03-23T18:59:10.820Z,6.30
2018-03-23T19:01:37.401Z,6.30
2018-03-23T19:04:04.553Z,6.20
2018-03-23T19:06:30.857Z,6.30
2018-03-23T19:08:57.892Z,6.20
2018-03-23T19:11:24.904Z,6.20
2018-03-23T19:16:48.704Z,6.20
2018-03-23T19:19:14.985Z,6.30
2018-03-23T19:21:41.237Z,6.30
2018-03-23T19:30:13.736Z,6.20
2018-03-23T19:32:44.649Z,6.30
2018-03-23T19:50:24.660Z,6.20
2018-03-23T19:52:50.821Z,6.20
2018-03-23T19:55:16.965Z,6.20
2018-03-23T19:57:43.208Z,6.20
2018-03-23T20:00:09.391Z,6.20
2018-03-23T20:02:36.248Z,6.30
2018-03-23T20:05:03.163Z,6.30
2018-03-23T20:07:29.331Z,6.30
2018-03-23T20:09:55.474Z,6.30
2018-03-23T20:12:21.585Z,6.20
2018-03-23T20:14:47.779Z,6.20
2018-03-23T20:17:13.942Z,6.20
2018-03-23T20:19:40.085Z,6.10
2018-03-23T20:22:06.301Z,6.10
2018-03-23T20:24:32.399Z,6.10
2018-03-23T20:27:00.132Z,6.10
2018-03-23T20:29:27.111Z,6.10
2018-03-23T20:31:59.251Z,6.10
2018-03-23T20:34:28.744Z,6.20
2018-03-23T20:36:54.935Z,6.20
2018-03-23T20:39:21.179Z,6.20
2018-03-23T20:41:47.316Z,6.10
2018-03-23T20:44:13.470Z,6.10
2018-03-23T20:46:41.126Z,6.10
2018-03-23T20:49:07.359Z,6.10
2018-03-23T20:51:33.482Z,6.10
2018-03-23T20:54:00.608Z,6.10
2018-03-23T20:56:30.579Z,6.00
2018-03-23T20:58:56.748Z,6.00
2018-03-23T21:01:23.100Z,6.10
2018-03-23T21:03:49.230Z,6.10
2018-03-23T21:09:16.592Z,6.00
2018-03-23T21:11:42.808Z,6.00
2018-03-23T21:14:09.024Z,6.00
2018-03-23T21:16:35.198Z,6.10
2018-03-23T21:19:01.332Z,6.10
2018-03-23T21:21:27.525Z,6.10
2018-03-23T21:23:53.663Z,6.10
2018-03-23T21:26:19.863Z,6.10
2018-03-23T21:28:46.722Z,6.10
2018-03-23T21:31:13.606Z,6.00
2018-03-23T21:33:39.803Z,6.00
2018-03-23T21:36:05.984Z,6.10
2018-03-23T21:38:34.463Z,6.10
2018-03-23T21:41:00.661Z,6.10
2018-03-23T21:43:26.744Z,6.10
2018-03-23T21:45:52.919Z,6.10
2018-03-23T21:48:19.098Z,6.10
2018-03-23T21:50:45.219Z,6.10
2018-03-23T21:53:11.356Z,6.20
2018-03-23T21:55:37.627Z,6.20
2018-03-23T21:58:04.500Z,6.20
2018-03-23T22:00:30.610Z,6.20
2018-03-23T22:02:57.473Z,6.20
2018-03-23T22:05:24.327Z,6.10
2018-03-23T22:07:50.439Z,6.10
2018-03-23T22:10:16.586Z,6.10
2018-03-23T22:12:42.693Z,6.10
2018-03-23T22:15:08.819Z,6.10
2018-03-23T22:17:34.911Z,6.10
2018-03-23T22:20:01.015Z,6.10
2018-03-23T22:22:27.163Z,6.10
2018-03-23T22:24:53.437Z,6.10
2018-03-23T22:27:19.616Z,6.10
2018-03-23T22:29:47.309Z,6.00
2018-03-23T22:32:13.492Z,6.00
2018-03-23T22:34:43.173Z,6.00
2018-03-23T22:37:09.377Z,6.00
2018-03-23T22:39:35.543Z,6.00
2018-03-23T22:42:01.668Z,5.90
2018-03-23T22:44:27.819Z,5.90
2018-03-23T22:46:53.974Z,5.90
2018-03-23T22:49:20.071Z,5.90
2018-03-23T22:51:46.205Z,5.90
2018-03-23T22:54:12.336Z,5.90
2018-03-23T22:56:38.452Z,5.90
2018-03-23T22:59:04.581Z,5.80
2018-03-23T23:01:31.377Z,5.80
2018-03-23T23:03:57.712Z,5.90
2018-03-23T23:06:23.853Z,5.90
2018-03-23T23:08:49.980Z,5.90
2018-03-23T23:11:16.079Z,5.90
2018-03-23T23:13:42.335Z,5.80
2018-03-23T23:16:08.584Z,5.80
2018-03-23T23:18:34.731Z,5.80
2018-03-23T23:21:00.945Z,5.80
2018-03-23T23:23:27.072Z,5.80
2018-03-23T23:25:53.375Z,5.80
2018-03-23T23:28:19.523Z,5.70
2018-03-23T23:30:46.377Z,5.70
2018-03-23T23:33:12.548Z,5.70
2018-03-23T23:35:38.686Z,5.60
2018-03-23T23:38:04.791Z,5.50
2018-03-23T23:40:31.674Z,5.50
2018-03-23T23:42:57.813Z,5.60
2018-03-23T23:45:24.003Z,5.60
2018-03-23T23:47:50.113Z,5.60
2018-03-23T23:50:16.255Z,5.60
2018-03-23T23:52:42.433Z,5.60
2018-03-23T23:55:09.324Z,5.60
2018-03-23T23:57:35.448Z,5.50
